Time;durP1;ratioP1;P1;durP2;ratioP2;P2;SDS_P1;SDS_P2;PMS_P1;PMS_P2;Temp;Humidity;BMP_temperature;BMP_pressure;BME280_temperature;BME280_humidity;BME280_pressure;Samples;Min_cycle;Max_cycle;Signal;HPM_P1;HPM_P2
2022/12/13 00:00:46;;;;;;;41.23;26.68;;;;;;;-1.22;92.31;98899.34;1775587;80;20995;-74
2022/12/13 00:03:13;;;;;;;49.50;31.02;;;;;;;-1.30;92.77;98894.70;1752581;80;21003;-77
2022/12/13 00:05:44;;;;;;;153.35;89.52;;;;;;;-1.29;92.97;98904.67;1785298;79;21149;-77
2022/12/13 00:08:10;;;;;;;102.35;58.35;;;;;;;-1.20;92.68;98900.05;1756185;80;21090;-75
2022/12/13 00:10:38;;;;;;;76.00;41.58;;;;;;;-1.21;92.76;98910.14;1758566;80;21063;-77
2022/12/13 00:13:05;;;;;;;158.35;91.72;;;;;;;-1.26;92.62;98907.03;1807049;79;20947;-75
2022/12/13 00:15:32;;;;;;;137.05;80.17;;;;;;;-1.19;92.54;98915.59;1813707;77;21093;-75
2022/12/13 00:17:58;;;;;;;97.78;48.92;;;;;;;-1.13;92.54;98916.09;1752844;79;21281;-77
2022/12/13 00:20:26;;;;;;;85.38;45.48;;;;;;;-1.16;92.88;98917.13;1751672;82;21002;-76
2022/12/13 00:22:53;;;;;;;80.55;46.68;;;;;;;-1.19;92.93;98926.49;1752604;80;21074;-76
2022/12/13 00:25:20;;;;;;;68.60;38.80;;;;;;;-1.06;92.62;98927.73;1783510;80;21025;-75
2022/12/13 00:27:46;;;;;;;68.10;35.15;;;;;;;-1.07;92.46;98930.78;1753480;80;21034;-76
2022/12/13 00:30:13;;;;;;;94.37;55.73;;;;;;;-1.15;92.72;98933.14;1816132;79;21090;-79
2022/12/13 00:32:40;;;;;;;116.90;78.83;;;;;;;-1.09;92.51;98923.55;1778722;80;21073;-78
2022/12/13 00:35:07;;;;;;;87.40;51.65;;;;;;;-1.00;92.06;98920.75;1762527;80;21042;-76
2022/12/13 00:37:34;;;;;;;61.77;37.30;;;;;;;-1.03;92.41;98915.27;1815264;79;21074;-77
2022/12/13 00:40:00;;;;;;;42.33;28.05;;;;;;;-1.09;92.59;98915.73;1793952;79;20994;-76
2022/12/13 00:42:27;;;;;;;36.90;25.48;;;;;;;-1.01;92.64;98917.28;1751309;80;21251;-76
2022/12/13 00:44:54;;;;;;;37.65;25.30;;;;;;;-0.99;92.54;98915.88;1759085;78;21027;-77
2022/12/13 00:47:21;;;;;;;33.20;22.58;;;;;;;-1.04;92.78;98918.84;1776017;77;20975;-77
2022/12/13 00:49:47;;;;;;;35.88;23.60;;;;;;;-1.07;92.64;98912.53;1764770;77;20951;-77
2022/12/13 00:52:14;;;;;;;31.60;22.62;;;;;;;-0.98;92.56;98918.03;1791370;79;21006;-77
2022/12/13 00:54:41;;;;;;;32.67;22.27;;;;;;;-1.01;92.38;98917.28;1781089;79;21134;-76
2022/12/13 00:57:08;;;;;;;33.98;22.02;;;;;;;-1.07;92.45;98928.18;1815737;79;21034;-78
2022/12/13 00:59:34;;;;;;;33.85;24.18;;;;;;;-0.97;92.31;98924.89;1770280;80;21053;-77
2022/12/13 01:02:01;;;;;;;35.98;22.35;;;;;;;-0.97;91.94;98919.20;1749799;80;21018;-78
2022/12/13 01:04:28;;;;;;;30.70;22.87;;;;;;;-1.05;91.96;98922.38;1784101;79;21013;-79
2022/12/13 01:06:54;;;;;;;33.50;20.77;;;;;;;-1.05;91.86;98928.89;1799899;79;21180;-76
2022/12/13 01:09:31;;;;;;;34.48;23.42;;;;;;;-1.07;92.07;98931.27;1790712;79;20986;-77
2022/12/13 01:11:59;;;;;;;33.08;22.30;;;;;;;-1.07;92.03;98932.09;1805469;79;21541;-76
2022/12/13 01:14:26;;;;;;;31.33;21.82;;;;;;;-1.09;92.21;98931.38;1766491;78;20952;-76
2022/12/13 01:16:54;;;;;;;31.33;22.90;;;;;;;-1.00;92.14;98927.27;1776782;79;21089;-77
2022/12/13 01:19:23;;;;;;;34.90;22.82;;;;;;;-1.00;91.90;98925.48;1745180;81;21534;-75
2022/12/13 01:21:51;;;;;;;35.15;23.00;;;;;;;-1.06;92.26;98933.77;1766536;80;21069;-76
2022/12/13 01:24:20;;;;;;;32.13;23.90;;;;;;;-1.03;91.84;98930.91;1781793;80;21081;-77
2022/12/13 01:26:46;;;;;;;35.85;25.62;;;;;;;-0.98;91.80;98935.80;1735073;81;21049;-77
2022/12/13 01:29:13;;;;;;;34.13;23.57;;;;;;;-1.03;91.83;98931.39;1762663;81;21045;-80
2022/12/13 01:31:41;;;;;;;33.10;24.57;;;;;;;-1.03;91.92;98929.61;1763843;80;21031;-76
2022/12/13 01:34:12;;;;;;;34.80;24.15;;;;;;;-1.05;91.90;98928.07;1785262;80;21025;-76
2022/12/13 01:36:40;;;;;;;34.05;23.90;;;;;;;-1.04;92.00;98925.84;1793516;80;21006;-77
2022/12/13 01:39:09;;;;;;;33.05;23.02;;;;;;;-0.95;91.85;98924.30;1793177;79;21038;-77
2022/12/13 01:41:36;;;;;;;32.67;22.10;;;;;;;-1.02;91.69;98935.20;1793746;80;21037;-76
2022/12/13 01:44:06;;;;;;;34.33;23.83;;;;;;;-1.05;91.87;98941.93;1795986;79;21420;-77
2022/12/13 01:46:35;;;;;;;33.78;23.35;;;;;;;-0.95;91.98;98947.29;1772091;80;20939;-77
2022/12/13 01:49:08;;;;;;;31.95;22.95;;;;;;;-0.97;91.81;98941.84;1794026;79;21037;-78
2022/12/13 01:51:40;;;;;;;;;;;;;;;-1.05;91.85;98935.41;1795109;79;21052;-75
2022/12/13 01:54:10;;;;;;;32.95;23.07;;;;;;;-0.96;92.04;98941.73;1792871;80;20179;-77
2022/12/13 01:56:41;;;;;;;30.92;21.82;;;;;;;-1.00;91.98;98939.00;1775742;80;21095;-77
2022/12/13 01:59:09;;;;;;;29.87;21.05;;;;;;;-1.05;91.82;98943.71;1762138;81;21009;-77
2022/12/13 02:01:36;;;;;;;32.28;22.17;;;;;;;-0.98;91.72;98944.11;1762001;81;21073;-78
2022/12/13 02:04:03;;;;;;;37.58;22.73;;;;;;;-1.00;91.67;98943.73;1728157;81;21041;-76
2022/12/13 02:06:39;;;;;;;30.65;21.82;;;;;;;-1.08;92.07;98941.32;1760464;81;20982;-75
2022/12/13 02:09:07;;;;;;;34.03;22.10;;;;;;;-1.07;92.32;98937.78;1760998;81;21016;-76
2022/12/13 02:11:36;;;;;;;32.70;22.07;;;;;;;-1.08;92.48;98942.17;1742916;82;21025;-76
2022/12/13 02:14:02;;;;;;;36.63;24.07;;;;;;;-1.00;92.46;98933.30;1733002;83;21121;-76
2022/12/13 02:16:51;;;;;;;36.45;24.00;;;;;;;-1.02;92.53;98928.68;1759214;81;21149;-75
2022/12/13 02:19:36;;;;;;;33.78;22.32;;;;;;;-1.06;92.94;98929.86;1782779;80;21049;-77
2022/12/13 02:22:27;;;;;;;31.95;22.27;;;;;;;-1.02;92.78;98923.95;1762757;80;21183;-77
2022/12/13 02:25:26;;;;;;;39.20;24.90;;;;;;;-0.93;92.81;98929.75;1780012;80;21057;-77
2022/12/13 02:28:25;;;;;;;32.95;21.75;;;;;;;-0.98;92.88;98923.25;1780871;80;21026;-78
2022/12/13 02:30:54;;;;;;;34.67;23.92;;;;;;;-1.03;93.48;98929.61;1780480;80;21010;-76
2022/12/13 02:33:32;;;;;;;36.60;25.52;;;;;;;-0.91;93.01;98927.86;1752313;80;21045;-76
2022/12/13 02:36:36;;;;;;;36.15;23.20;;;;;;;-0.94;93.31;98932.02;1749737;80;21219;-75
2022/12/13 02:39:29;;;;;;;32.93;22.13;;;;;;;-0.98;93.55;98938.89;1770244;80;21019;-75
2022/12/13 02:42:02;;;;;;;37.38;23.65;;;;;;;-0.90;93.30;98947.78;1782615;80;21034;-77
2022/12/13 02:44:36;;;;;;;34.85;24.07;;;;;;;-0.85;93.28;98944.82;1814601;79;21333;-77
2022/12/13 02:47:09;;;;;;;36.38;24.72;;;;;;;-0.86;93.64;98946.61;1808408;79;21081;-78
2022/12/13 02:49:38;;;;;;;36.33;23.70;;;;;;;-0.90;93.67;98946.48;1750661;80;21121;-75
2022/12/13 02:52:08;;;;;;;36.20;24.05;;;;;;;-0.80;93.44;98951.36;1775335;80;21030;-77
2022/12/13 02:54:35;;;;;;;35.00;25.17;;;;;;;-0.75;93.33;98956.25;1745432;80;21070;-79
2022/12/13 02:57:02;;;;;;;37.23;24.32;;;;;;;-0.81;93.50;98964.05;1751722;80;20986;-78
2022/12/13 02:59:35;;;;;;;33.13;23.50;;;;;;;-0.87;93.51;98954.09;1782296;80;21090;-78
2022/12/13 03:02:05;;;;;;;;;;;;;;;-0.81;93.40;98956.72;1731689;82;21148;-76
2022/12/13 03:07:54;;;;;;;38.23;23.10;;;;;;;-0.87;93.36;98963.66;1782412;80;21537;-76
2022/12/13 03:10:25;;;;;;;32.60;23.38;;;;;;;-0.89;93.54;98968.17;1758942;78;21061;-77
2022/12/13 03:15:57;;;;;;;36.05;23.83;;;;;;;-0.91;93.64;98974.80;1781480;79;21058;-73
2022/12/13 03:18:26;;;;;;;32.00;22.32;;;;;;;-0.93;93.55;98975.38;1780170;79;21074;-78
2022/12/13 03:21:00;;;;;;;35.20;24.18;;;;;;;-0.85;93.25;98972.20;1793292;80;21053;-78
2022/12/13 03:23:27;;;;;;;39.20;24.80;;;;;;;-0.89;93.50;98969.47;1793119;80;21022;-78
2022/12/13 03:26:07;;;;;;;32.13;22.82;;;;;;;-0.95;93.73;98964.72;1789891;79;21046;-77
2022/12/13 03:28:35;;;;;;;32.85;23.47;;;;;;;-0.86;93.61;98964.86;1745452;81;21905;-75
2022/12/13 03:31:01;;;;;;;32.78;24.10;;;;;;;-0.81;93.53;98960.62;1756560;79;21104;-79
2022/12/13 03:33:28;;;;;;;35.78;24.35;;;;;;;-0.86;93.71;98962.25;1773375;80;21266;-78
2022/12/13 03:35:56;;;;;;;32.42;23.15;;;;;;;-0.91;93.75;98957.84;1770322;81;21127;-79
2022/12/13 03:38:23;;;;;;;33.10;23.57;;;;;;;-0.82;93.48;98957.16;1759310;81;21087;-78
2022/12/13 03:40:56;;;;;;;36.10;24.72;;;;;;;-0.83;93.55;98946.84;1790744;80;21061;-78
2022/12/13 03:43:22;;;;;;;34.33;24.12;;;;;;;-0.87;94.00;98942.80;1764030;80;21041;-77
2022/12/13 03:45:51;;;;;;;34.00;23.95;;;;;;;-0.90;94.15;98939.96;1786038;80;21021;-77
2022/12/13 03:48:18;;;;;;;34.85;24.77;;;;;;;-0.78;93.89;98938.20;1791261;80;21053;-80
2022/12/13 03:50:45;;;;;;;34.60;24.20;;;;;;;-0.72;93.64;98937.73;1772342;81;21081;-79
2022/12/13 03:53:12;;;;;;;35.20;25.32;;;;;;;-0.76;93.77;98940.22;1761854;81;21137;-76
2022/12/13 03:55:38;;;;;;;32.48;22.80;;;;;;;-0.82;93.96;98932.39;1761342;80;21080;-75
2022/12/13 03:58:05;;;;;;;33.25;23.77;;;;;;;-0.79;93.99;98932.65;1761445;80;21041;-76
2022/12/13 04:00:31;;;;;;;34.98;25.40;;;;;;;-0.70;93.59;98932.41;1760866;80;21539;-77
2022/12/13 04:02:58;;;;;;;33.63;24.02;;;;;;;-0.71;93.82;98932.89;1761672;80;21096;-75
2022/12/13 04:05:24;;;;;;;36.17;23.95;;;;;;;-0.70;94.12;98935.84;1761909;80;21248;-75
2022/12/13 04:07:51;;;;;;;31.95;23.45;;;;;;;-0.73;93.46;98936.09;1763080;80;20987;-75
2022/12/13 04:10:18;;;;;;;34.08;23.32;;;;;;;-0.66;92.92;98935.14;1784586;80;20974;-77
2022/12/13 04:15:29;;;;;;;33.42;23.52;;;;;;;;;;1776635;80;21537;-78
2022/12/13 04:17:57;;;;;;;36.25;24.57;;;;;;;-0.75;92.88;98951.03;1723206;83;21142;-76
2022/12/13 04:20:23;;;;;;;34.70;24.82;;;;;;;-0.71;92.75;98953.77;1783222;80;21034;-78
2022/12/13 04:22:50;;;;;;;37.67;25.85;;;;;;;-0.78;93.14;98945.20;1726597;83;21073;-77
2022/12/13 04:25:18;;;;;;;39.33;26.87;;;;;;;-0.85;93.49;98952.64;1728300;81;21021;-79
2022/12/13 04:27:45;;;;;;;38.17;28.10;;;;;;;-0.84;93.49;98954.33;1756738;81;21614;-76
2022/12/13 04:30:12;;;;;;;35.88;26.45;;;;;;;-0.76;93.26;98953.27;1783394;80;21137;-75
2022/12/13 04:32:38;;;;;;;40.38;29.67;;;;;;;-0.77;93.45;98949.02;1749564;80;21104;-78
2022/12/13 04:35:05;;;;;;;36.77;26.50;;;;;;;-0.81;93.82;98955.41;1786426;79;21528;-79
2022/12/13 04:37:33;;;;;;;42.85;28.10;;;;;;;-0.84;93.70;98956.45;1757416;80;21070;-79
2022/12/13 04:39:59;;;;;;;37.20;25.60;;;;;;;-0.76;93.34;98959.78;1769890;80;21050;-78
2022/12/13 04:42:25;;;;;;;38.58;27.22;;;;;;;-0.75;93.11;98961.91;1783390;79;21106;-78
2022/12/13 04:44:53;;;;;;;34.58;24.60;;;;;;;-0.83;93.33;98962.48;1794001;79;21058;-78
2022/12/13 04:47:20;;;;;;;35.17;23.75;;;;;;;-0.85;93.28;98965.69;1804701;79;21038;-81
2022/12/13 04:49:46;;;;;;;34.33;23.50;;;;;;;-0.78;93.03;98960.38;1781727;80;21057;-79
2022/12/13 04:52:13;;;;;;;36.90;25.48;;;;;;;-0.78;93.05;98951.73;1803850;79;21090;-78
2022/12/13 04:54:39;;;;;;;38.50;26.43;;;;;;;-0.87;93.27;98949.33;1811721;79;22217;-80
2022/12/13 04:57:07;;;;;;;35.17;24.20;;;;;;;-0.92;93.59;98944.47;1787317;79;21050;-78
2022/12/13 04:59:34;;;;;;;36.35;26.17;;;;;;;-0.83;93.34;98958.13;1745943;82;21018;-79
2022/12/13 05:02:02;;;;;;;40.12;26.90;;;;;;;-0.82;93.13;98966.29;1812923;79;21029;-77
2022/12/13 05:04:29;;;;;;;37.08;25.15;;;;;;;-0.90;93.30;98965.22;1789001;79;21037;-79
2022/12/13 05:06:56;;;;;;;35.25;24.15;;;;;;;-0.90;93.40;98954.78;1785311;79;21321;-79
2022/12/13 05:09:23;;;;;;;39.30;26.73;;;;;;;-0.82;93.03;98957.64;1796670;79;20998;-77
2022/12/13 05:11:51;;;;;;;37.42;25.88;;;;;;;-0.90;93.24;98961.30;1751178;80;21003;-76
2022/12/13 05:14:18;;;;;;;35.98;25.20;;;;;;;-0.96;93.49;98957.37;1782770;79;21090;-76
2022/12/13 05:16:45;;;;;;;33.38;23.27;;;;;;;-0.93;93.63;98968.86;1788743;79;21133;-78
2022/12/13 05:19:11;;;;;;;40.03;26.50;;;;;;;-0.92;93.62;98977.54;1782262;79;21048;-76
2022/12/13 05:21:38;;;;;;;36.38;24.05;;;;;;;-0.87;93.28;98975.40;1785096;79;21069;-77
2022/12/13 05:24:05;;;;;;;35.58;25.00;;;;;;;-0.85;92.99;98986.09;1810365;79;21073;-76
2022/12/13 05:26:32;;;;;;;33.85;23.83;;;;;;;-0.91;93.10;98981.80;1813446;79;20998;-78
2022/12/13 05:28:59;;;;;;;33.55;24.20;;;;;;;-0.93;92.95;98982.38;1784360;79;21092;-78
2022/12/13 05:31:26;;;;;;;43.33;24.27;;;;;;;-0.87;92.79;98990.59;1811541;79;21162;-79
2022/12/13 05:33:53;;;;;;;38.08;26.37;;;;;;;-0.92;93.07;98986.19;1812918;79;21045;-77
2022/12/13 05:36:24;;;;;;;39.20;26.35;;;;;;;-0.98;93.35;98984.03;1803438;77;21334;-80
2022/12/13 05:38:48;;;;;;;36.23;26.17;;;;;;;-0.89;93.27;98976.84;1772598;77;21495;-80
2022/12/13 05:41:16;;;;;;;44.18;29.27;;;;;;;-0.82;93.40;98974.11;1783796;80;21589;-82
2022/12/13 05:43:43;;;;;;;41.90;29.50;;;;;;;-0.82;93.74;98978.03;1782252;79;21736;-82
2022/12/13 05:46:11;;;;;;;42.98;29.42;;;;;;;-0.78;94.06;98989.55;1750534;80;21023;-80
2022/12/13 05:48:38;;;;;;;40.75;29.45;;;;;;;-0.69;94.11;98998.00;1782871;79;21031;-82
2022/12/13 05:51:04;;;;;;;42.67;29.70;;;;;;;-0.55;93.83;98993.86;1782989;79;21009;-81
2022/12/13 05:53:31;;;;;;;42.33;28.45;;;;;;;-0.54;93.72;98985.55;1783092;80;21046;-83
2022/12/13 05:56:01;;;;;;;37.70;26.90;;;;;;;-0.60;93.52;98978.57;1803289;79;22005;-82
2022/12/13 05:58:28;;;;;;;45.12;30.82;;;;;;;-0.56;93.15;98975.71;1817369;79;20955;-82
2022/12/13 06:00:57;;;;;;;43.80;29.02;;;;;;;-0.51;92.74;98976.20;1780419;80;21023;-78
2022/12/13 06:03:23;;;;;;;54.73;37.15;;;;;;;-0.55;92.71;98968.26;1778842;79;21136;-77
2022/12/13 06:05:50;;;;;;;47.40;33.28;;;;;;;-0.63;92.86;98966.22;1774324;80;21490;-75
2022/12/13 06:08:16;;;;;;;45.60;30.17;;;;;;;-0.66;93.03;98967.75;1778799;80;21355;-77
2022/12/13 06:10:43;;;;;;;46.90;31.87;;;;;;;-0.57;92.67;98976.67;1811182;79;21581;-78
2022/12/13 06:13:09;;;;;;;47.25;32.00;;;;;;;-0.53;92.50;98991.14;1799664;79;21509;-76
2022/12/13 06:15:37;;;;;;;53.35;34.08;;;;;;;-0.60;92.64;98982.48;1789921;79;21014;-76
2022/12/13 06:18:03;;;;;;;62.65;40.20;;;;;;;-0.68;92.57;98984.81;1739099;81;21119;-77
2022/12/13 06:20:29;;;;;;;60.90;39.48;;;;;;;-0.65;92.59;98981.98;1718865;83;21214;-76
2022/12/13 06:22:58;;;;;;;56.05;37.78;;;;;;;-0.63;92.65;98987.92;1725887;82;21054;-77
2022/12/13 06:25:24;;;;;;;53.23;33.67;;;;;;;-0.69;92.99;98983.17;1715033;82;21034;-77
2022/12/13 06:27:52;;;;;;;52.65;32.40;;;;;;;-0.72;93.15;98981.26;1731199;82;21034;-77
2022/12/13 06:30:19;;;;;;;50.28;33.30;;;;;;;-0.67;92.86;98986.97;1728024;82;21101;-79
2022/12/13 06:32:48;;;;;;;46.05;31.73;;;;;;;-0.64;92.92;98991.48;1742649;82;21081;-81
2022/12/13 06:35:16;;;;;;;58.17;37.10;;;;;;;-0.68;92.97;98990.03;1746054;82;21035;-79
2022/12/13 06:37:42;;;;;;;54.90;35.92;;;;;;;-0.70;92.97;98995.84;1724365;83;21072;-81
2022/12/13 06:40:09;;;;;;;53.75;33.42;;;;;;;-0.64;92.75;98999.31;1721376;82;21066;-77
2022/12/13 06:42:36;;;;;;;50.38;31.73;;;;;;;-0.58;92.47;98999.78;1715147;82;21401;-81
2022/12/13 06:45:03;;;;;;;56.30;35.35;;;;;;;-0.65;92.49;99005.95;1726666;82;21230;-80
2022/12/13 06:47:30;;;;;;;45.78;31.95;;;;;;;-0.72;92.59;99013.38;1727144;82;21025;-78
2022/12/13 06:49:56;;;;;;;50.52;32.63;;;;;;;-0.65;92.23;99011.98;1740370;82;21062;-79
2022/12/13 06:52:24;;;;;;;50.17;34.18;;;;;;;-0.62;91.98;99013.08;1738010;82;21109;-79
2022/12/13 06:54:50;;;;;;;56.68;40.78;;;;;;;-0.66;92.21;99016.01;1721261;82;21114;-78
2022/12/13 06:57:18;;;;;;;55.58;37.00;;;;;;;-0.72;92.38;99015.98;1715350;83;21023;-81
2022/12/13 06:59:44;;;;;;;46.33;31.55;;;;;;;-0.63;92.35;99016.61;1723277;82;21018;-80
2022/12/13 07:02:11;;;;;;;45.60;29.98;;;;;;;-0.57;92.19;99024.46;1723811;82;21055;-78
2022/12/13 07:04:39;;;;;;;42.03;27.13;;;;;;;-0.63;91.87;99034.05;1733267;82;21025;-76
2022/12/13 07:07:05;;;;;;;44.33;29.20;;;;;;;-0.69;92.23;99048.86;1702227;81;21095;-77
2022/12/13 07:09:32;;;;;;;43.83;28.12;;;;;;;-0.66;91.92;99052.53;1725862;82;21156;-76
2022/12/13 07:11:59;;;;;;;57.75;31.73;;;;;;;-0.73;92.09;99054.77;1721699;82;21010;-75
2022/12/13 07:14:26;;;;;;;67.53;34.80;;;;;;;-0.66;92.13;99048.62;1742865;82;21085;-77
2022/12/13 07:16:52;;;;;;;63.55;31.23;;;;;;;-0.62;92.30;99052.66;1720782;83;21017;-77
2022/12/13 07:19:19;;;;;;;35.73;24.70;;;;;;;-0.66;91.89;99059.91;1710632;81;21042;-76
2022/12/13 07:21:45;;;;;;;41.35;25.23;;;;;;;-0.70;91.29;99063.66;1716385;82;21087;-76
2022/12/13 07:24:12;;;;;;;37.75;22.87;;;;;;;-0.72;91.69;99073.38;1719901;82;21574;-76
2022/12/13 07:26:39;;;;;;;31.48;21.95;;;;;;;-0.74;91.10;99068.75;1711841;82;21132;-76
2022/12/13 07:29:05;;;;;;;32.83;21.02;;;;;;;-0.74;90.58;99066.62;1722581;82;21082;-76
2022/12/13 07:31:35;;;;;;;30.52;21.52;;;;;;;-0.84;91.04;99062.07;1707081;83;21071;-77
2022/12/13 07:34:04;;;;;;;30.48;20.90;;;;;;;-0.86;91.41;99057.44;1678719;85;21215;-77
2022/12/13 07:36:31;;;;;;;32.42;22.48;;;;;;;-0.85;91.75;99065.64;1683549;84;21593;-77
2022/12/13 07:38:58;;;;;;;28.83;19.55;;;;;;;-0.79;91.88;99066.97;1696672;84;21116;-77
2022/12/13 07:41:25;;;;;;;44.85;26.52;;;;;;;-0.80;91.83;99059.59;1696449;84;21014;-77
2022/12/13 07:43:54;;;;;;;109.97;45.35;;;;;;;-0.75;91.82;99057.97;1696575;84;21378;-76
2022/12/13 07:46:20;;;;;;;100.35;41.77;;;;;;;-0.69;91.70;99063.21;1696004;84;21108;-77
2022/12/13 07:48:47;;;;;;;51.88;26.40;;;;;;;-0.74;92.00;99064.83;1685850;84;21051;-74
2022/12/13 07:51:13;;;;;;;42.40;24.02;;;;;;;-0.75;92.22;99072.31;1677675;84;21047;-78
2022/12/13 07:53:40;;;;;;;35.48;23.30;;;;;;;-0.66;91.83;99063.82;1678317;84;21329;-75
2022/12/13 07:56:10;;;;;;;38.70;24.02;;;;;;;-0.62;91.60;99063.09;1667850;83;21083;-76
2022/12/13 07:58:37;;;;;;;40.75;26.70;;;;;;;-0.67;91.74;99065.23;1688719;84;21380;-77
2022/12/13 08:01:07;;;;;;;36.53;25.95;;;;;;;-0.65;91.79;99071.17;1699589;84;20964;-76
2022/12/13 08:03:35;;;;;;;35.50;25.75;;;;;;;-0.54;91.32;99070.35;1685545;84;21050;-78
2022/12/13 08:06:08;;;;;;;37.58;28.23;;;;;;;-0.55;91.12;99066.92;1679877;84;21070;-77
2022/12/13 08:08:36;;;;;;;30.52;22.67;;;;;;;-0.61;91.26;99072.12;1671201;84;21086;-77
2022/12/13 08:11:08;;;;;;;33.42;24.37;;;;;;;-0.62;91.29;99082.21;1678761;84;21066;-77
2022/12/13 08:13:39;;;;;;;42.43;28.67;;;;;;;-0.61;90.97;99066.91;1677798;84;21161;-78
2022/12/13 08:16:09;;;;;;;35.20;24.83;;;;;;;-0.65;91.15;99071.17;1681650;84;20998;-78
2022/12/13 08:18:35;;;;;;;45.48;30.25;;;;;;;-0.57;91.33;99064.91;1684885;83;22018;-77
2022/12/13 08:21:04;;;;;;;38.55;25.52;;;;;;;-0.46;91.20;99072.77;1756417;81;21066;-77
2022/12/13 08:23:32;;;;;;;34.67;23.32;;;;;;;-0.47;91.11;99085.44;1711102;82;21306;-77
2022/12/13 08:26:00;;;;;;;37.75;25.50;;;;;;;-0.52;90.55;99084.97;1714902;82;21485;-78
2022/12/13 08:28:29;;;;;;;34.45;23.47;;;;;;;-0.50;90.22;99079.16;1723141;82;21017;-78
2022/12/13 08:30:56;;;;;;;33.45;23.20;;;;;;;-0.52;90.32;99084.97;1716558;82;21061;-76
2022/12/13 08:34:54;;;;;;;31.17;22.07;;;;;;;-0.41;90.36;99077.63;1778443;79;23206;-78
2022/12/13 08:37:21;;;;;;;33.55;22.37;;;;;;;-0.42;89.99;99075.98;1745953;80;20982;-79
2022/12/13 08:39:48;;;;;;;28.38;20.82;;;;;;;-0.41;89.67;99075.02;1740363;81;22424;-78
2022/12/13 08:42:18;;;;;;;26.52;20.30;;;;;;;-0.39;89.25;99078.34;1750846;81;21013;-74
2022/12/13 08:44:49;;;;;;;30.68;23.60;;;;;;;-0.42;88.73;99078.59;1726158;81;21488;-75
2022/12/13 08:47:15;;;;;;;31.60;23.07;;;;;;;-0.43;88.64;99071.70;1750359;80;21588;-73
2022/12/13 08:49:42;;;;;;;30.50;23.47;;;;;;;-0.48;88.02;99065.53;1752462;81;21044;-73
2022/12/13 08:52:08;;;;;;;31.30;20.82;;;;;;;-0.45;88.07;99065.77;1761932;81;21250;-71
2022/12/13 08:54:35;;;;;;;35.55;23.00;;;;;;;-0.48;87.68;99060.79;1733045;82;20925;-74
2022/12/13 08:57:01;;;;;;;36.50;22.37;;;;;;;-0.51;87.67;99057.09;1735218;82;21025;-75
2022/12/13 08:59:28;;;;;;;27.32;18.92;;;;;;;-0.46;87.73;99064.11;1759445;81;20999;-78
2022/12/13 09:01:54;;;;;;;29.77;19.12;;;;;;;-0.46;87.65;99062.33;1762507;81;21017;-75
2022/12/13 09:04:21;;;;;;;25.95;19.07;;;;;;;-0.42;87.46;99061.15;1756828;81;21093;-74
2022/12/13 09:06:47;;;;;;;25.88;19.70;;;;;;;-0.43;87.73;99064.69;1746632;81;21603;-74
2022/12/13 09:09:13;;;;;;;23.52;17.73;;;;;;;-0.35;87.31;99068.52;1760062;81;21104;-78
2022/12/13 09:11:40;;;;;;;23.50;18.27;;;;;;;-0.38;87.09;99065.67;1735978;81;21377;-75
2022/12/13 09:14:08;;;;;;;23.87;16.97;;;;;;;-0.35;87.15;99060.20;1733178;82;21220;-78
2022/12/13 09:16:35;;;;;;;23.50;17.77;;;;;;;-0.33;86.98;99058.34;1732992;82;21166;-80
2022/12/13 09:19:03;;;;;;;23.95;17.20;;;;;;;-0.28;86.65;99064.50;1732985;82;21052;-77
2022/12/13 09:21:31;;;;;;;23.20;17.60;;;;;;;-0.27;86.95;99063.54;1796149;79;21016;-79
2022/12/13 09:23:57;;;;;;;28.27;20.05;;;;;;;-0.24;86.63;99065.93;1748036;79;21059;-78
2022/12/13 09:26:23;;;;;;;26.42;17.48;;;;;;;-0.24;86.35;99069.36;1759773;81;20953;-78
2022/12/13 09:28:50;;;;;;;25.90;18.42;;;;;;;-0.25;85.05;99057.28;1746019;81;21291;-80
2022/12/13 09:31:18;;;;;;;20.60;15.15;;;;;;;-0.28;85.25;99058.80;1759899;80;21864;-80
2022/12/13 09:33:44;;;;;;;17.92;14.23;;;;;;;-0.29;84.48;99051.08;1740746;80;21010;-79
2022/12/13 09:36:16;;;;;;;22.45;17.15;;;;;;;-0.30;83.93;99050.25;1728246;82;21080;-80
2022/12/13 09:38:43;;;;;;;22.85;16.27;;;;;;;-0.37;84.15;99050.83;1706484;82;21016;-76
2022/12/13 09:41:26;;;;;;;26.95;16.95;;;;;;;-0.39;83.96;99053.55;1719692;82;22295;-75
2022/12/13 09:43:57;;;;;;;20.92;16.10;;;;;;;-0.41;83.40;99050.23;1700440;84;21021;-80
2022/12/13 09:46:32;;;;;;;22.85;16.40;;;;;;;-0.41;83.72;99055.45;1731086;82;21002;-78
2022/12/13 09:49:02;;;;;;;23.73;18.07;;;;;;;-0.41;84.20;99055.45;1721340;82;21064;-78
2022/12/13 09:51:29;;;;;;;25.00;16.48;;;;;;;-0.37;84.43;99051.66;1723387;82;21019;-79
2022/12/13 09:53:56;;;;;;;22.87;16.25;;;;;;;-0.35;84.56;99046.33;1680383;84;21139;-76
2022/12/13 09:56:24;;;;;;;24.43;16.70;;;;;;;-0.29;84.33;99045.86;1722762;83;20994;-78
2022/12/13 09:58:52;;;;;;;21.37;14.58;;;;;;;-0.28;84.52;99047.53;1707809;83;20952;-81
2022/12/13 10:01:19;;;;;;;22.17;16.70;;;;;;;-0.22;84.07;99045.76;1722911;82;21034;-78
2022/12/13 10:03:49;;;;;;;25.77;18.20;;;;;;;-0.23;84.27;99039.72;1713881;82;21110;-79
2022/12/13 10:06:20;;;;;;;23.80;16.97;;;;;;;-0.17;84.35;99030.59;1720871;82;21089;-79
2022/12/13 10:08:54;;;;;;;25.57;17.70;;;;;;;-0.17;84.16;99030.59;1718672;82;21092;-79
2022/12/13 10:11:20;;;;;;;;;;;;;;;-0.13;84.12;99037.23;1733592;82;20925;-79
2022/12/13 10:14:07;;;;;;;25.75;16.57;;;;;;;-0.14;83.92;99030.81;1721802;81;20158;-75
2022/12/13 10:16:39;;;;;;;23.40;16.32;;;;;;;-0.13;84.13;99028.58;1730337;80;20790;-82
2022/12/13 10:19:27;;;;;;;20.70;15.72;;;;;;;-0.13;84.04;99016.34;1692098;83;21130;-81
2022/12/13 10:21:53;;;;;;;21.90;15.58;;;;;;;-0.10;83.48;99018.70;1740232;80;20979;-80
2022/12/13 10:24:29;;;;;;;20.60;14.75;;;;;;;-0.13;83.26;99018.13;1720819;82;21008;-80
2022/12/13 10:26:59;;;;;;;20.65;15.15;;;;;;;-0.14;83.00;99019.07;1715211;82;20926;-77
2022/12/13 10:29:25;;;;;;;20.05;15.23;;;;;;;-0.20;83.00;99012.53;1701120;82;20941;-77
2022/12/13 10:31:52;;;;;;;20.65;15.78;;;;;;;-0.16;83.02;99011.83;1726747;82;21065;-77
2022/12/13 10:34:28;;;;;;;22.15;17.32;;;;;;;-0.15;83.37;99009.11;1697246;82;21026;-77
2022/12/13 10:36:55;;;;;;;20.65;15.32;;;;;;;-0.13;83.06;99008.52;1739254;81;21047;-76
2022/12/13 10:39:42;;;;;;;20.55;15.48;;;;;;;-0.15;82.84;99009.59;1733984;81;21171;-77
2022/12/13 10:42:18;;;;;;;22.20;16.42;;;;;;;-0.13;83.23;99010.30;1720523;81;21190;-77
2022/12/13 10:44:45;;;;;;;24.57;17.48;;;;;;;-0.13;83.28;99005.08;1744673;81;21222;-77
2022/12/13 10:47:23;;;;;;;26.15;17.10;;;;;;;-0.09;83.18;99002.59;1745519;80;20966;-80
2022/12/13 10:49:53;;;;;;;27.48;18.32;;;;;;;-0.10;82.92;98996.99;1745453;79;20986;-80
2022/12/13 10:52:31;;;;;;;28.02;18.82;;;;;;;-0.10;82.76;98997.81;1753033;78;21035;-80
2022/12/13 10:55:02;;;;;;;28.70;19.65;;;;;;;-0.13;83.14;98994.16;1747161;78;21253;-80
2022/12/13 10:57:28;;;;;;;32.05;20.23;;;;;;;-0.08;84.13;98985.50;1749634;78;22139;-81
2022/12/13 10:59:55;;;;;;;30.97;21.40;;;;;;;0.00;84.79;98982.30;1745689;80;20903;-80
2022/12/13 11:02:34;;;;;;;67.95;23.30;;;;;;;0.11;85.10;98980.95;1746978;79;21172;-80
2022/12/13 11:05:28;;;;;;;30.90;20.65;;;;;;;0.17;84.89;98972.66;1740053;81;20969;-82
2022/12/13 11:08:41;;;;;;;26.68;18.48;;;;;;;0.24;85.02;98975.61;1745251;81;20962;-83
2022/12/13 11:11:08;;;;;;;32.75;21.57;;;;;;;0.23;84.29;98976.55;1739776;80;21405;-81
2022/12/13 11:13:46;;;;;;;27.07;18.95;;;;;;;0.26;84.74;98982.02;1749995;79;21042;-86
2022/12/13 11:16:29;;;;;;;24.35;18.20;;;;;;;0.27;84.74;98983.67;1740376;80;21053;-86
2022/12/13 11:19:04;;;;;;;24.32;17.42;;;;;;;0.31;84.68;98983.33;1732278;78;20863;-85
2022/12/13 11:21:35;;;;;;;29.37;20.02;;;;;;;0.33;84.92;98987.13;1744159;78;20982;-83
2022/12/13 11:24:07;;;;;;;31.57;19.45;;;;;;;0.39;84.62;98986.64;1754749;78;21116;-84
2022/12/13 11:26:37;;;;;;;29.95;21.80;;;;;;;0.43;84.90;98979.39;1738224;79;20997;-80
2022/12/13 11:29:21;;;;;;;25.85;19.12;;;;;;;0.47;84.32;98976.88;1750152;79;21009;-82
2022/12/13 11:32:17;;;;;;;23.25;18.07;;;;;;;0.38;83.43;98974.51;1750171;81;20994;-75
2022/12/13 11:35:04;;;;;;;24.80;18.10;;;;;;;0.26;83.04;98973.70;1764997;80;20982;-76
2022/12/13 11:38:16;;;;;;;25.65;17.60;;;;;;;0.17;83.69;98975.27;1732328;81;22298;-76
2022/12/13 11:40:49;;;;;;;24.25;17.65;;;;;;;0.18;83.56;98978.23;1736695;81;21540;-74